sensor_id;sensor_type;location;lat;lon;timestamp;P1;durP1;ratioP1;P2;durP2;ratioP2
65230;SDS011;51813;40.666;16.602;2023-07-24T00:02:04;6.55;;;4.13;;
65230;SDS011;51813;40.666;16.602;2023-07-24T00:04:31;8.38;;;3.60;;
65230;SDS011;51813;40.666;16.602;2023-07-24T00:06:56;5.93;;;3.65;;
65230;SDS011;51813;40.666;16.602;2023-07-24T00:09:22;5.68;;;3.50;;
65230;SDS011;51813;40.666;16.602;2023-07-24T00:11:48;7.20;;;4.15;;
65230;SDS011;51813;40.666;16.602;2023-07-24T00:14:14;6.43;;;3.70;;
65230;SDS011;51813;40.666;16.602;2023-07-24T00:16:40;6.57;;;3.38;;
65230;SDS011;51813;40.666;16.602;2023-07-24T00:19:06;8.63;;;4.15;;
65230;SDS011;51813;40.666;16.602;2023-07-24T00:21:32;5.50;;;3.60;;
65230;SDS011;51813;40.666;16.602;2023-07-24T00:23:58;8.23;;;3.70;;
65230;SDS011;51813;40.666;16.602;2023-07-24T00:26:23;7.45;;;3.90;;
65230;SDS011;51813;40.666;16.602;2023-07-24T00:28:49;6.18;;;3.53;;
65230;SDS011;51813;40.666;16.602;2023-07-24T00:31:15;5.95;;;3.70;;
65230;SDS011;51813;40.666;16.602;2023-07-24T00:33:40;6.55;;;3.65;;
65230;SDS011;51813;40.666;16.602;2023-07-24T00:36:06;5.55;;;3.78;;
65230;SDS011;51813;40.666;16.602;2023-07-24T00:38:32;5.30;;;3.13;;
65230;SDS011;51813;40.666;16.602;2023-07-24T00:40:57;5.90;;;3.75;;
65230;SDS011;51813;40.666;16.602;2023-07-24T00:43:23;6.03;;;3.42;;
65230;SDS011;51813;40.666;16.602;2023-07-24T00:45:49;7.18;;;3.78;;
65230;SDS011;51813;40.666;16.602;2023-07-24T00:48:15;5.88;;;3.78;;
65230;SDS011;51813;40.666;16.602;2023-07-24T00:50:42;7.68;;;4.10;;
65230;SDS011;51813;40.666;16.602;2023-07-24T00:53:10;6.68;;;3.63;;
65230;SDS011;51813;40.666;16.602;2023-07-24T00:55:37;7.10;;;3.67;;
65230;SDS011;51813;40.666;16.602;2023-07-24T00:58:03;7.82;;;3.70;;
65230;SDS011;51813;40.666;16.602;2023-07-24T01:00:29;6.68;;;3.58;;
65230;SDS011;51813;40.666;16.602;2023-07-24T01:02:56;9.10;;;4.25;;
65230;SDS011;51813;40.666;16.602;2023-07-24T01:05:24;5.78;;;3.88;;
65230;SDS011;51813;40.666;16.602;2023-07-24T01:07:52;6.45;;;3.67;;
65230;SDS011;51813;40.666;16.602;2023-07-24T01:10:17;6.78;;;4.03;;
65230;SDS011;51813;40.666;16.602;2023-07-24T01:15:16;6.43;;;3.80;;
65230;SDS011;51813;40.666;16.602;2023-07-24T01:17:45;6.88;;;3.72;;
65230;SDS011;51813;40.666;16.602;2023-07-24T01:20:13;7.93;;;4.17;;
65230;SDS011;51813;40.666;16.602;2023-07-24T01:22:54;8.27;;;3.65;;
65230;SDS011;51813;40.666;16.602;2023-07-24T01:25:33;7.05;;;4.03;;
65230;SDS011;51813;40.666;16.602;2023-07-24T01:28:08;8.23;;;3.83;;
65230;SDS011;51813;40.666;16.602;2023-07-24T01:30:34;9.23;;;4.20;;
65230;SDS011;51813;40.666;16.602;2023-07-24T01:33:00;5.93;;;3.83;;
65230;SDS011;51813;40.666;16.602;2023-07-24T01:35:26;7.30;;;3.63;;
65230;SDS011;51813;40.666;16.602;2023-07-24T01:37:54;9.15;;;4.05;;
65230;SDS011;51813;40.666;16.602;2023-07-24T01:40:21;7.30;;;3.92;;
65230;SDS011;51813;40.666;16.602;2023-07-24T01:42:48;6.57;;;3.58;;
65230;SDS011;51813;40.666;16.602;2023-07-24T01:45:15;7.22;;;3.53;;
65230;SDS011;51813;40.666;16.602;2023-07-24T01:47:41;6.60;;;3.50;;
65230;SDS011;51813;40.666;16.602;2023-07-24T01:50:06;7.55;;;3.97;;
65230;SDS011;51813;40.666;16.602;2023-07-24T01:52:32;8.50;;;3.97;;
65230;SDS011;51813;40.666;16.602;2023-07-24T01:54:58;9.98;;;4.05;;
65230;SDS011;51813;40.666;16.602;2023-07-24T01:57:24;8.30;;;4.57;;
65230;SDS011;51813;40.666;16.602;2023-07-24T01:59:49;6.70;;;3.50;;
65230;SDS011;51813;40.666;16.602;2023-07-24T02:02:15;8.70;;;4.03;;
65230;SDS011;51813;40.666;16.602;2023-07-24T02:04:41;7.50;;;4.32;;
65230;SDS011;51813;40.666;16.602;2023-07-24T02:07:06;7.15;;;3.90;;
65230;SDS011;51813;40.666;16.602;2023-07-24T02:09:32;6.95;;;3.85;;
65230;SDS011;51813;40.666;16.602;2023-07-24T02:11:58;8.05;;;4.10;;
65230;SDS011;51813;40.666;16.602;2023-07-24T02:14:23;6.82;;;3.55;;
65230;SDS011;51813;40.666;16.602;2023-07-24T02:16:49;5.63;;;3.25;;
65230;SDS011;51813;40.666;16.602;2023-07-24T02:19:15;7.65;;;3.70;;
65230;SDS011;51813;40.666;16.602;2023-07-24T02:21:40;7.57;;;3.97;;
65230;SDS011;51813;40.666;16.602;2023-07-24T02:24:06;7.57;;;3.95;;
65230;SDS011;51813;40.666;16.602;2023-07-24T02:26:32;6.90;;;3.33;;
65230;SDS011;51813;40.666;16.602;2023-07-24T02:28:58;6.75;;;3.75;;
65230;SDS011;51813;40.666;16.602;2023-07-24T02:31:23;8.65;;;3.85;;
65230;SDS011;51813;40.666;16.602;2023-07-24T02:33:49;8.45;;;3.92;;
65230;SDS011;51813;40.666;16.602;2023-07-24T02:36:15;7.20;;;3.50;;
65230;SDS011;51813;40.666;16.602;2023-07-24T02:38:40;7.10;;;3.55;;
65230;SDS011;51813;40.666;16.602;2023-07-24T02:41:06;8.60;;;3.80;;
65230;SDS011;51813;40.666;16.602;2023-07-24T02:43:32;5.88;;;3.63;;
65230;SDS011;51813;40.666;16.602;2023-07-24T02:46:01;8.23;;;3.53;;
65230;SDS011;51813;40.666;16.602;2023-07-24T02:48:27;7.95;;;3.70;;
65230;SDS011;51813;40.666;16.602;2023-07-24T02:50:53;6.38;;;3.55;;
65230;SDS011;51813;40.666;16.602;2023-07-24T02:53:19;9.35;;;3.90;;
65230;SDS011;51813;40.666;16.602;2023-07-24T02:55:44;9.32;;;4.25;;
65230;SDS011;51813;40.666;16.602;2023-07-24T02:58:11;7.75;;;4.00;;
65230;SDS011;51813;40.666;16.602;2023-07-24T03:00:37;8.57;;;3.70;;
65230;SDS011;51813;40.666;16.602;2023-07-24T03:03:03;7.90;;;3.50;;
65230;SDS011;51813;40.666;16.602;2023-07-24T03:05:29;10.05;;;4.20;;
65230;SDS011;51813;40.666;16.602;2023-07-24T03:07:55;8.43;;;3.72;;
65230;SDS011;51813;40.666;16.602;2023-07-24T03:10:22;8.73;;;3.97;;
65230;SDS011;51813;40.666;16.602;2023-07-24T03:12:48;7.53;;;3.80;;
65230;SDS011;51813;40.666;16.602;2023-07-24T03:15:13;8.15;;;3.67;;
65230;SDS011;51813;40.666;16.602;2023-07-24T03:17:39;7.38;;;3.60;;
65230;SDS011;51813;40.666;16.602;2023-07-24T03:20:08;8.93;;;3.55;;
65230;SDS011;51813;40.666;16.602;2023-07-24T03:22:44;7.22;;;3.70;;
65230;SDS011;51813;40.666;16.602;2023-07-24T03:25:10;7.55;;;4.05;;
65230;SDS011;51813;40.666;16.602;2023-07-24T03:27:36;9.77;;;4.38;;
65230;SDS011;51813;40.666;16.602;2023-07-24T03:30:02;7.65;;;4.05;;
65230;SDS011;51813;40.666;16.602;2023-07-24T03:32:28;6.25;;;3.78;;
65230;SDS011;51813;40.666;16.602;2023-07-24T03:34:54;9.27;;;4.07;;
65230;SDS011;51813;40.666;16.602;2023-07-24T03:37:19;8.80;;;4.10;;
65230;SDS011;51813;40.666;16.602;2023-07-24T03:39:45;9.45;;;4.20;;
65230;SDS011;51813;40.666;16.602;2023-07-24T03:42:11;9.45;;;4.43;;
65230;SDS011;51813;40.666;16.602;2023-07-24T03:44:39;6.68;;;3.40;;
65230;SDS011;51813;40.666;16.602;2023-07-24T03:47:05;6.18;;;3.47;;
65230;SDS011;51813;40.666;16.602;2023-07-24T03:49:31;7.55;;;3.65;;
65230;SDS011;51813;40.666;16.602;2023-07-24T03:51:57;10.32;;;3.60;;
65230;SDS011;51813;40.666;16.602;2023-07-24T03:54:22;7.30;;;3.50;;
65230;SDS011;51813;40.666;16.602;2023-07-24T03:56:48;6.78;;;3.55;;
65230;SDS011;51813;40.666;16.602;2023-07-24T03:59:14;7.22;;;3.30;;
65230;SDS011;51813;40.666;16.602;2023-07-24T04:01:39;7.97;;;3.63;;
65230;SDS011;51813;40.666;16.602;2023-07-24T04:04:05;6.75;;;3.63;;
65230;SDS011;51813;40.666;16.602;2023-07-24T04:06:31;8.80;;;4.05;;
65230;SDS011;51813;40.666;16.602;2023-07-24T04:08:56;7.35;;;3.67;;
65230;SDS011;51813;40.666;16.602;2023-07-24T04:11:22;8.30;;;3.83;;
65230;SDS011;51813;40.666;16.602;2023-07-24T04:13:47;6.95;;;3.30;;
65230;SDS011;51813;40.666;16.602;2023-07-24T04:16:13;6.82;;;3.35;;
65230;SDS011;51813;40.666;16.602;2023-07-24T04:18:39;5.85;;;3.50;;
65230;SDS011;51813;40.666;16.602;2023-07-24T04:21:04;6.28;;;3.45;;
65230;SDS011;51813;40.666;16.602;2023-07-24T04:23:30;5.93;;;3.45;;
65230;SDS011;51813;40.666;16.602;2023-07-24T04:25:56;7.05;;;3.40;;
65230;SDS011;51813;40.666;16.602;2023-07-24T04:28:21;6.15;;;3.33;;
65230;SDS011;51813;40.666;16.602;2023-07-24T04:30:47;5.40;;;3.33;;
65230;SDS011;51813;40.666;16.602;2023-07-24T04:33:13;6.38;;;3.15;;
65230;SDS011;51813;40.666;16.602;2023-07-24T04:35:38;6.80;;;3.47;;
65230;SDS011;51813;40.666;16.602;2023-07-24T04:38:04;5.18;;;3.50;;
65230;SDS011;51813;40.666;16.602;2023-07-24T04:40:30;6.78;;;3.40;;
65230;SDS011;51813;40.666;16.602;2023-07-24T04:42:55;5.72;;;3.45;;
65230;SDS011;51813;40.666;16.602;2023-07-24T04:45:21;5.07;;;3.20;;
65230;SDS011;51813;40.666;16.602;2023-07-24T04:47:47;5.47;;;3.40;;
65230;SDS011;51813;40.666;16.602;2023-07-24T04:50:12;6.90;;;3.72;;
65230;SDS011;51813;40.666;16.602;2023-07-24T04:52:38;6.07;;;3.50;;
65230;SDS011;51813;40.666;16.602;2023-07-24T04:55:04;5.47;;;3.35;;
65230;SDS011;51813;40.666;16.602;2023-07-24T04:57:30;5.88;;;3.55;;
65230;SDS011;51813;40.666;16.602;2023-07-24T04:59:55;7.93;;;3.60;;
65230;SDS011;51813;40.666;16.602;2023-07-24T05:02:21;10.45;;;3.33;;
65230;SDS011;51813;40.666;16.602;2023-07-24T05:04:47;7.57;;;3.72;;
65230;SDS011;51813;40.666;16.602;2023-07-24T05:07:12;4.55;;;3.10;;
65230;SDS011;51813;40.666;16.602;2023-07-24T05:09:38;4.80;;;3.13;;
65230;SDS011;51813;40.666;16.602;2023-07-24T05:12:04;6.05;;;2.95;;
65230;SDS011;51813;40.666;16.602;2023-07-24T05:14:30;7.30;;;3.53;;
65230;SDS011;51813;40.666;16.602;2023-07-24T05:16:56;5.85;;;3.08;;
65230;SDS011;51813;40.666;16.602;2023-07-24T05:19:21;5.70;;;3.38;;
65230;SDS011;51813;40.666;16.602;2023-07-24T05:21:47;8.38;;;3.40;;
65230;SDS011;51813;40.666;16.602;2023-07-24T05:24:13;6.22;;;3.22;;
65230;SDS011;51813;40.666;16.602;2023-07-24T05:26:38;5.35;;;3.03;;
65230;SDS011;51813;40.666;16.602;2023-07-24T05:29:04;5.45;;;3.00;;
65230;SDS011;51813;40.666;16.602;2023-07-24T05:31:29;6.22;;;3.22;;
65230;SDS011;51813;40.666;16.602;2023-07-24T05:33:55;5.13;;;3.10;;
65230;SDS011;51813;40.666;16.602;2023-07-24T05:36:22;5.63;;;3.10;;
65230;SDS011;51813;40.666;16.602;2023-07-24T05:38:48;4.40;;;2.95;;
65230;SDS011;51813;40.666;16.602;2023-07-24T05:41:13;4.47;;;3.13;;
65230;SDS011;51813;40.666;16.602;2023-07-24T05:43:39;5.40;;;3.15;;
65230;SDS011;51813;40.666;16.602;2023-07-24T05:46:05;5.00;;;3.10;;
65230;SDS011;51813;40.666;16.602;2023-07-24T05:48:30;5.63;;;2.90;;
65230;SDS011;51813;40.666;16.602;2023-07-24T05:50:56;4.00;;;2.70;;
65230;SDS011;51813;40.666;16.602;2023-07-24T05:53:21;4.65;;;2.90;;
65230;SDS011;51813;40.666;16.602;2023-07-24T05:55:56;5.88;;;3.38;;
65230;SDS011;51813;40.666;16.602;2023-07-24T05:58:23;5.50;;;3.40;;
65230;SDS011;51813;40.666;16.602;2023-07-24T06:00:49;7.13;;;3.33;;
65230;SDS011;51813;40.666;16.602;2023-07-24T06:03:15;6.10;;;3.50;;
65230;SDS011;51813;40.666;16.602;2023-07-24T06:05:40;6.22;;;3.33;;
65230;SDS011;51813;40.666;16.602;2023-07-24T06:08:06;6.13;;;3.28;;
65230;SDS011;51813;40.666;16.602;2023-07-24T06:10:33;5.40;;;3.03;;
65230;SDS011;51813;40.666;16.602;2023-07-24T06:12:59;6.88;;;3.40;;
65230;SDS011;51813;40.666;16.602;2023-07-24T06:15:25;6.65;;;3.38;;
65230;SDS011;51813;40.666;16.602;2023-07-24T06:17:51;7.78;;;3.65;;
65230;SDS011;51813;40.666;16.602;2023-07-24T06:20:17;5.78;;;3.63;;
65230;SDS011;51813;40.666;16.602;2023-07-24T06:22:42;5.13;;;3.00;;
65230;SDS011;51813;40.666;16.602;2023-07-24T06:25:08;7.97;;;3.30;;
65230;SDS011;51813;40.666;16.602;2023-07-24T06:27:33;4.53;;;2.92;;
65230;SDS011;51813;40.666;16.602;2023-07-24T06:29:59;6.32;;;3.20;;
65230;SDS011;51813;40.666;16.602;2023-07-24T06:32:25;6.57;;;3.42;;
65230;SDS011;51813;40.666;16.602;2023-07-24T06:34:50;5.93;;;3.45;;
65230;SDS011;51813;40.666;16.602;2023-07-24T06:37:16;4.80;;;3.05;;
65230;SDS011;51813;40.666;16.602;2023-07-24T06:39:42;4.35;;;3.13;;
65230;SDS011;51813;40.666;16.602;2023-07-24T06:42:08;5.10;;;3.00;;
65230;SDS011;51813;40.666;16.602;2023-07-24T06:44:34;6.78;;;2.97;;
65230;SDS011;51813;40.666;16.602;2023-07-24T06:46:59;5.45;;;3.17;;
65230;SDS011;51813;40.666;16.602;2023-07-24T06:49:25;8.18;;;3.67;;
65230;SDS011;51813;40.666;16.602;2023-07-24T06:51:51;8.25;;;3.42;;
65230;SDS011;51813;40.666;16.602;2023-07-24T06:54:16;6.43;;;3.58;;
65230;SDS011;51813;40.666;16.602;2023-07-24T06:56:42;6.93;;;3.30;;
65230;SDS011;51813;40.666;16.602;2023-07-24T06:59:08;5.82;;;3.75;;
65230;SDS011;51813;40.666;16.602;2023-07-24T07:01:33;6.93;;;3.78;;
65230;SDS011;51813;40.666;16.602;2023-07-24T07:03:59;5.88;;;3.55;;
65230;SDS011;51813;40.666;16.602;2023-07-24T07:06:25;5.32;;;3.03;;
65230;SDS011;51813;40.666;16.602;2023-07-24T07:08:50;8.07;;;3.55;;
65230;SDS011;51813;40.666;16.602;2023-07-24T07:11:16;14.70;;;3.88;;
65230;SDS011;51813;40.666;16.602;2023-07-24T07:13:42;7.53;;;3.80;;
65230;SDS011;51813;40.666;16.602;2023-07-24T07:16:07;8.38;;;3.58;;
65230;SDS011;51813;40.666;16.602;2023-07-24T07:18:33;8.52;;;3.70;;
65230;SDS011;51813;40.666;16.602;2023-07-24T07:20:59;9.77;;;3.72;;
65230;SDS011;51813;40.666;16.602;2023-07-24T07:23:24;9.70;;;4.32;;
65230;SDS011;51813;40.666;16.602;2023-07-24T07:25:50;13.05;;;3.97;;
65230;SDS011;51813;40.666;16.602;2023-07-24T07:28:16;12.27;;;4.93;;
65230;SDS011;51813;40.666;16.602;2023-07-24T07:30:43;11.77;;;4.10;;
65230;SDS011;51813;40.666;16.602;2023-07-24T07:33:09;8.05;;;3.53;;
65230;SDS011;51813;40.666;16.602;2023-07-24T07:35:35;9.65;;;4.35;;
65230;SDS011;51813;40.666;16.602;2023-07-24T07:38:01;12.27;;;4.03;;
65230;SDS011;51813;40.666;16.602;2023-07-24T07:40:27;11.50;;;3.47;;
65230;SDS011;51813;40.666;16.602;2023-07-24T07:42:53;10.57;;;4.15;;
65230;SDS011;51813;40.666;16.602;2023-07-24T07:45:20;11.90;;;3.90;;
65230;SDS011;51813;40.666;16.602;2023-07-24T07:47:46;12.57;;;4.32;;
65230;SDS011;51813;40.666;16.602;2023-07-24T07:50:12;7.88;;;3.95;;
65230;SDS011;51813;40.666;16.602;2023-07-24T07:52:38;12.55;;;4.20;;
65230;SDS011;51813;40.666;16.602;2023-07-24T07:55:04;14.15;;;4.20;;
65230;SDS011;51813;40.666;16.602;2023-07-24T07:57:36;10.63;;;4.43;;
65230;SDS011;51813;40.666;16.602;2023-07-24T08:00:02;8.98;;;3.65;;
65230;SDS011;51813;40.666;16.602;2023-07-24T08:02:29;14.23;;;4.85;;
65230;SDS011;51813;40.666;16.602;2023-07-24T08:04:57;10.05;;;3.72;;
65230;SDS011;51813;40.666;16.602;2023-07-24T08:07:22;9.80;;;4.18;;
65230;SDS011;51813;40.666;16.602;2023-07-24T08:09:48;9.25;;;3.97;;
65230;SDS011;51813;40.666;16.602;2023-07-24T08:12:14;12.13;;;4.53;;
65230;SDS011;51813;40.666;16.602;2023-07-24T08:14:39;11.63;;;4.07;;
65230;SDS011;51813;40.666;16.602;2023-07-24T08:17:05;11.63;;;4.63;;
65230;SDS011;51813;40.666;16.602;2023-07-24T08:19:31;11.45;;;4.70;;
65230;SDS011;51813;40.666;16.602;2023-07-24T08:21:56;8.65;;;4.03;;
65230;SDS011;51813;40.666;16.602;2023-07-24T08:24:22;12.30;;;4.15;;
65230;SDS011;51813;40.666;16.602;2023-07-24T08:26:48;13.65;;;4.22;;
65230;SDS011;51813;40.666;16.602;2023-07-24T08:29:14;12.38;;;4.65;;
65230;SDS011;51813;40.666;16.602;2023-07-24T08:31:39;10.10;;;4.43;;
65230;SDS011;51813;40.666;16.602;2023-07-24T08:34:05;11.23;;;4.95;;
65230;SDS011;51813;40.666;16.602;2023-07-24T08:36:31;11.65;;;4.47;;
65230;SDS011;51813;40.666;16.602;2023-07-24T08:38:57;13.55;;;4.78;;
65230;SDS011;51813;40.666;16.602;2023-07-24T08:41:22;13.50;;;4.57;;
65230;SDS011;51813;40.666;16.602;2023-07-24T08:43:48;13.55;;;4.90;;
65230;SDS011;51813;40.666;16.602;2023-07-24T08:46:16;10.00;;;4.03;;
65230;SDS011;51813;40.666;16.602;2023-07-24T08:48:43;11.90;;;4.53;;
65230;SDS011;51813;40.666;16.602;2023-07-24T08:51:10;11.40;;;4.60;;
65230;SDS011;51813;40.666;16.602;2023-07-24T08:53:38;14.05;;;4.70;;
65230;SDS011;51813;40.666;16.602;2023-07-24T08:56:06;13.88;;;4.70;;
65230;SDS011;51813;40.666;16.602;2023-07-24T08:58:33;10.70;;;4.10;;
65230;SDS011;51813;40.666;16.602;2023-07-24T09:01:00;11.20;;;4.03;;
65230;SDS011;51813;40.666;16.602;2023-07-24T09:03:27;10.85;;;4.70;;
65230;SDS011;51813;40.666;16.602;2023-07-24T09:05:53;10.15;;;4.35;;
65230;SDS011;51813;40.666;16.602;2023-07-24T09:11:18;9.50;;;4.03;;
65230;SDS011;51813;40.666;16.602;2023-07-24T09:13:44;7.82;;;3.80;;
65230;SDS011;51813;40.666;16.602;2023-07-24T09:16:10;13.82;;;4.30;;
65230;SDS011;51813;40.666;16.602;2023-07-24T09:18:50;12.27;;;4.53;;
65230;SDS011;51813;40.666;16.602;2023-07-24T09:21:26;10.95;;;4.30;;
65230;SDS011;51813;40.666;16.602;2023-07-24T09:23:55;12.02;;;4.32;;
65230;SDS011;51813;40.666;16.602;2023-07-24T09:26:21;13.88;;;5.05;;
65230;SDS011;51813;40.666;16.602;2023-07-24T09:28:53;7.15;;;3.80;;
65230;SDS011;51813;40.666;16.602;2023-07-24T09:31:19;8.55;;;3.85;;
65230;SDS011;51813;40.666;16.602;2023-07-24T09:33:45;10.05;;;4.20;;
65230;SDS011;51813;40.666;16.602;2023-07-24T09:36:11;9.75;;;4.20;;
65230;SDS011;51813;40.666;16.602;2023-07-24T09:38:38;12.23;;;4.25;;
65230;SDS011;51813;40.666;16.602;2023-07-24T09:41:04;13.48;;;4.13;;
65230;SDS011;51813;40.666;16.602;2023-07-24T09:43:31;14.35;;;4.20;;
65230;SDS011;51813;40.666;16.602;2023-07-24T09:46:00;12.77;;;4.30;;
65230;SDS011;51813;40.666;16.602;2023-07-24T09:48:26;13.48;;;4.40;;
65230;SDS011;51813;40.666;16.602;2023-07-24T09:50:53;9.90;;;4.32;;
65230;SDS011;51813;40.666;16.602;2023-07-24T09:53:39;9.10;;;4.43;;
65230;SDS011;51813;40.666;16.602;2023-07-24T09:56:09;10.48;;;5.13;;
65230;SDS011;51813;40.666;16.602;2023-07-24T09:58:36;13.13;;;4.90;;
65230;SDS011;51813;40.666;16.602;2023-07-24T10:01:03;8.93;;;4.22;;
65230;SDS011;51813;40.666;16.602;2023-07-24T10:03:33;11.57;;;4.32;;
65230;SDS011;51813;40.666;16.602;2023-07-24T10:06:00;12.73;;;4.60;;
65230;SDS011;51813;40.666;16.602;2023-07-24T10:08:27;10.05;;;4.43;;
65230;SDS011;51813;40.666;16.602;2023-07-24T10:10:53;11.60;;;4.40;;
65230;SDS011;51813;40.666;16.602;2023-07-24T10:13:19;12.45;;;4.65;;
65230;SDS011;51813;40.666;16.602;2023-07-24T10:15:47;11.00;;;4.65;;
65230;SDS011;51813;40.666;16.602;2023-07-24T10:18:15;9.55;;;4.40;;
65230;SDS011;51813;40.666;16.602;2023-07-24T10:20:43;12.27;;;4.78;;
65230;SDS011;51813;40.666;16.602;2023-07-24T10:23:09;11.00;;;4.57;;
65230;SDS011;51813;40.666;16.602;2023-07-24T10:25:37;11.60;;;4.13;;
65230;SDS011;51813;40.666;16.602;2023-07-24T10:28:08;11.50;;;4.25;;
65230;SDS011;51813;40.666;16.602;2023-07-24T10:30:41;8.90;;;4.50;;
65230;SDS011;51813;40.666;16.602;2023-07-24T10:33:11;10.43;;;4.40;;
65230;SDS011;51813;40.666;16.602;2023-07-24T10:35:45;10.02;;;4.90;;
65230;SDS011;51813;40.666;16.602;2023-07-24T10:38:16;12.93;;;4.60;;
65230;SDS011;51813;40.666;16.602;2023-07-24T10:40:43;8.60;;;4.03;;
65230;SDS011;51813;40.666;16.602;2023-07-24T10:43:11;7.45;;;4.00;;
65230;SDS011;51813;40.666;16.602;2023-07-24T10:45:41;12.77;;;4.65;;
65230;SDS011;51813;40.666;16.602;2023-07-24T10:48:07;10.97;;;4.20;;
65230;SDS011;51813;40.666;16.602;2023-07-24T10:50:40;15.25;;;4.78;;
65230;SDS011;51813;40.666;16.602;2023-07-24T10:53:08;12.43;;;4.63;;
65230;SDS011;51813;40.666;16.602;2023-07-24T10:55:34;11.02;;;4.15;;
65230;SDS011;51813;40.666;16.602;2023-07-24T10:58:00;9.60;;;4.30;;
65230;SDS011;51813;40.666;16.602;2023-07-24T11:00:26;9.60;;;4.30;;
65230;SDS011;51813;40.666;16.602;2023-07-24T11:02:53;11.07;;;4.60;;
65230;SDS011;51813;40.666;16.602;2023-07-24T11:05:20;12.82;;;4.32;;
65230;SDS011;51813;40.666;16.602;2023-07-24T11:07:47;15.07;;;4.28;;
65230;SDS011;51813;40.666;16.602;2023-07-24T11:10:17;9.77;;;4.47;;
65230;SDS011;51813;40.666;16.602;2023-07-24T11:12:46;9.20;;;4.38;;
65230;SDS011;51813;40.666;16.602;2023-07-24T11:15:12;9.40;;;4.20;;
65230;SDS011;51813;40.666;16.602;2023-07-24T11:17:39;10.15;;;4.20;;
65230;SDS011;51813;40.666;16.602;2023-07-24T11:22:37;8.63;;;3.88;;
65230;SDS011;51813;40.666;16.602;2023-07-24T11:25:04;7.18;;;4.10;;
65230;SDS011;51813;40.666;16.602;2023-07-24T11:27:31;8.40;;;3.88;;
65230;SDS011;51813;40.666;16.602;2023-07-24T11:29:57;7.22;;;3.75;;
65230;SDS011;51813;40.666;16.602;2023-07-24T11:32:23;8.10;;;3.67;;
65230;SDS011;51813;40.666;16.602;2023-07-24T11:34:49;8.35;;;4.00;;
65230;SDS011;51813;40.666;16.602;2023-07-24T11:37:16;8.98;;;3.90;;
65230;SDS011;51813;40.666;16.602;2023-07-24T11:39:43;7.40;;;3.75;;
65230;SDS011;51813;40.666;16.602;2023-07-24T11:42:20;11.38;;;3.78;;
65230;SDS011;51813;40.666;16.602;2023-07-24T11:44:46;6.82;;;3.30;;
65230;SDS011;51813;40.666;16.602;2023-07-24T11:47:11;6.57;;;3.13;;
65230;SDS011;51813;40.666;16.602;2023-07-24T11:49:37;6.47;;;3.33;;
65230;SDS011;51813;40.666;16.602;2023-07-24T11:52:10;5.15;;;3.67;;
65230;SDS011;51813;40.666;16.602;2023-07-24T11:54:36;6.15;;;3.25;;
65230;SDS011;51813;40.666;16.602;2023-07-24T11:57:01;6.60;;;3.90;;
65230;SDS011;51813;40.666;16.602;2023-07-24T11:59:27;6.18;;;3.60;;
65230;SDS011;51813;40.666;16.602;2023-07-24T12:01:53;7.90;;;3.78;;
65230;SDS011;51813;40.666;16.602;2023-07-24T12:04:19;7.05;;;3.65;;
65230;SDS011;51813;40.666;16.602;2023-07-24T12:06:45;6.82;;;3.25;;
65230;SDS011;51813;40.666;16.602;2023-07-24T12:09:11;6.65;;;4.15;;
65230;SDS011;51813;40.666;16.602;2023-07-24T12:14:48;6.68;;;3.58;;
65230;SDS011;51813;40.666;16.602;2023-07-24T12:18:04;5.53;;;3.35;;
65230;SDS011;51813;40.666;16.602;2023-07-24T12:20:56;6.03;;;3.20;;
65230;SDS011;51813;40.666;16.602;2023-07-24T12:23:27;7.07;;;3.58;;
65230;SDS011;51813;40.666;16.602;2023-07-24T12:25:53;5.15;;;3.22;;
65230;SDS011;51813;40.666;16.602;2023-07-24T12:28:18;5.60;;;3.20;;
65230;SDS011;51813;40.666;16.602;2023-07-24T12:30:44;7.50;;;3.88;;
65230;SDS011;51813;40.666;16.602;2023-07-24T12:33:10;6.93;;;3.42;;
65230;SDS011;51813;40.666;16.602;2023-07-24T12:35:36;6.30;;;3.58;;
65230;SDS011;51813;40.666;16.602;2023-07-24T12:38:01;7.25;;;3.50;;
65230;SDS011;51813;40.666;16.602;2023-07-24T12:40:42;7.13;;;3.38;;
65230;SDS011;51813;40.666;16.602;2023-07-24T12:43:41;4.32;;;3.13;;
65230;SDS011;51813;40.666;16.602;2023-07-24T12:46:08;6.13;;;3.55;;
65230;SDS011;51813;40.666;16.602;2023-07-24T12:48:33;8.43;;;3.90;;
65230;SDS011;51813;40.666;16.602;2023-07-24T12:51:01;5.93;;;3.20;;
65230;SDS011;51813;40.666;16.602;2023-07-24T12:53:26;7.35;;;3.60;;
65230;SDS011;51813;40.666;16.602;2023-07-24T12:55:52;6.25;;;3.72;;
65230;SDS011;51813;40.666;16.602;2023-07-24T12:58:18;6.03;;;3.25;;
65230;SDS011;51813;40.666;16.602;2023-07-24T13:00:44;6.68;;;3.58;;
65230;SDS011;51813;40.666;16.602;2023-07-24T13:03:10;6.07;;;3.72;;
65230;SDS011;51813;40.666;16.602;2023-07-24T13:05:37;5.75;;;3.50;;
65230;SDS011;51813;40.666;16.602;2023-07-24T13:08:23;6.57;;;3.22;;
65230;SDS011;51813;40.666;16.602;2023-07-24T13:10:49;6.90;;;3.38;;
65230;SDS011;51813;40.666;16.602;2023-07-24T13:13:14;9.98;;;3.65;;
65230;SDS011;51813;40.666;16.602;2023-07-24T13:15:40;5.43;;;3.13;;
65230;SDS011;51813;40.666;16.602;2023-07-24T13:18:06;5.55;;;3.20;;
65230;SDS011;51813;40.666;16.602;2023-07-24T13:20:31;5.53;;;3.28;;
65230;SDS011;51813;40.666;16.602;2023-07-24T13:22:57;7.25;;;3.20;;
65230;SDS011;51813;40.666;16.602;2023-07-24T13:25:23;7.05;;;3.38;;
65230;SDS011;51813;40.666;16.602;2023-07-24T13:27:49;6.50;;;3.38;;
65230;SDS011;51813;40.666;16.602;2023-07-24T13:30:15;5.30;;;3.22;;
65230;SDS011;51813;40.666;16.602;2023-07-24T13:32:41;8.60;;;4.20;;
65230;SDS011;51813;40.666;16.602;2023-07-24T13:35:07;7.50;;;3.58;;
65230;SDS011;51813;40.666;16.602;2023-07-24T13:37:33;6.03;;;3.53;;
65230;SDS011;51813;40.666;16.602;2023-07-24T13:39:58;7.20;;;3.65;;
65230;SDS011;51813;40.666;16.602;2023-07-24T13:42:24;7.80;;;3.55;;
65230;SDS011;51813;40.666;16.602;2023-07-24T13:44:50;6.38;;;3.58;;
65230;SDS011;51813;40.666;16.602;2023-07-24T13:47:16;7.00;;;3.97;;
65230;SDS011;51813;40.666;16.602;2023-07-24T13:49:42;6.97;;;3.90;;
65230;SDS011;51813;40.666;16.602;2023-07-24T13:52:08;7.30;;;3.40;;
65230;SDS011;51813;40.666;16.602;2023-07-24T13:54:33;7.38;;;3.65;;
65230;SDS011;51813;40.666;16.602;2023-07-24T13:56:59;7.65;;;3.42;;
65230;SDS011;51813;40.666;16.602;2023-07-24T13:59:25;7.28;;;3.70;;
65230;SDS011;51813;40.666;16.602;2023-07-24T14:01:50;6.22;;;3.15;;
65230;SDS011;51813;40.666;16.602;2023-07-24T14:04:16;7.63;;;3.95;;
65230;SDS011;51813;40.666;16.602;2023-07-24T14:06:42;7.13;;;3.97;;
65230;SDS011;51813;40.666;16.602;2023-07-24T14:09:07;7.05;;;3.30;;
65230;SDS011;51813;40.666;16.602;2023-07-24T14:11:33;6.10;;;3.30;;
65230;SDS011;51813;40.666;16.602;2023-07-24T14:13:59;6.90;;;3.55;;
65230;SDS011;51813;40.666;16.602;2023-07-24T14:16:24;7.20;;;3.35;;
65230;SDS011;51813;40.666;16.602;2023-07-24T14:18:50;6.00;;;3.20;;
65230;SDS011;51813;40.666;16.602;2023-07-24T14:21:16;5.38;;;3.17;;
65230;SDS011;51813;40.666;16.602;2023-07-24T14:23:41;8.00;;;3.33;;
65230;SDS011;51813;40.666;16.602;2023-07-24T14:26:07;7.38;;;3.33;;
65230;SDS011;51813;40.666;16.602;2023-07-24T14:28:33;6.03;;;3.30;;
65230;SDS011;51813;40.666;16.602;2023-07-24T14:30:58;6.30;;;3.50;;
65230;SDS011;51813;40.666;16.602;2023-07-24T14:33:24;7.15;;;3.58;;
65230;SDS011;51813;40.666;16.602;2023-07-24T14:35:50;8.20;;;4.03;;
65230;SDS011;51813;40.666;16.602;2023-07-24T14:38:16;6.97;;;3.28;;
65230;SDS011;51813;40.666;16.602;2023-07-24T14:40:42;6.18;;;3.15;;